createdAt,value
2022-08-26T00:00:55.026Z,25.00
2022-08-26T00:03:24.297Z,25.09
2022-08-26T00:05:55.732Z,25.13
2022-08-26T00:08:25.580Z,25.10
2022-08-26T00:10:55.543Z,25.17
2022-08-26T00:13:24.464Z,25.08
2022-08-26T00:15:53.601Z,24.91
2022-08-26T00:18:22.814Z,24.99
2022-08-26T00:20:52.272Z,24.90
2022-08-26T00:23:24.286Z,24.93
2022-08-26T00:25:53.582Z,24.89
2022-08-26T00:28:24.132Z,24.80
2022-08-26T00:30:53.027Z,24.85
2022-08-26T00:33:22.175Z,24.78
2022-08-26T00:35:51.613Z,24.84
2022-08-26T00:38:21.320Z,24.81
2022-08-26T00:40:52.329Z,24.82
2022-08-26T00:43:23.359Z,24.75
2022-08-26T00:45:54.185Z,24.76
2022-08-26T00:48:26.241Z,24.80
2022-08-26T00:51:02.706Z,24.58
2022-08-26T00:53:35.415Z,24.67
2022-08-26T00:56:07.942Z,24.58
2022-08-26T00:58:43.016Z,24.60
2022-08-26T01:01:14.751Z,24.52
2022-08-26T01:03:45.046Z,24.47
2022-08-26T01:06:15.920Z,24.39
2022-08-26T01:08:45.038Z,24.19
2022-08-26T01:11:13.863Z,24.34
2022-08-26T01:13:43.858Z,24.36
2022-08-26T01:16:14.669Z,24.43
2022-08-26T01:18:44.863Z,24.26
2022-08-26T01:21:19.170Z,24.26
2022-08-26T01:23:51.443Z,24.27
2022-08-26T01:26:29.793Z,24.37
2022-08-26T01:29:00.221Z,24.31
2022-08-26T01:31:33.726Z,24.35
2022-08-26T01:34:06.724Z,24.34
2022-08-26T01:36:38.349Z,24.20
2022-08-26T01:39:08.968Z,24.04
2022-08-26T01:41:38.033Z,24.04
2022-08-26T01:44:09.730Z,24.15
2022-08-26T01:46:39.200Z,24.10
2022-08-26T01:49:08.846Z,24.18
2022-08-26T01:51:38.213Z,24.04
2022-08-26T01:54:11.813Z,24.15
2022-08-26T01:56:40.946Z,23.97
2022-08-26T01:59:13.691Z,24.09
2022-08-26T02:01:42.393Z,23.88
2022-08-26T02:04:16.437Z,23.96
2022-08-26T02:06:45.658Z,24.00
2022-08-26T02:09:16.565Z,24.13
2022-08-26T02:11:45.431Z,24.26
2022-08-26T02:14:17.338Z,23.91
2022-08-26T02:16:48.377Z,23.93
2022-08-26T02:19:19.601Z,23.89
2022-08-26T02:21:51.349Z,23.88
2022-08-26T02:24:24.588Z,23.91
2022-08-26T02:26:57.397Z,23.99
2022-08-26T02:29:31.683Z,23.91
2022-08-26T02:32:00.458Z,23.87
2022-08-26T02:34:33.035Z,23.96
2022-08-26T02:37:03.378Z,23.91
2022-08-26T02:39:34.608Z,23.69
2022-08-26T02:42:03.411Z,23.83
2022-08-26T02:44:32.883Z,23.93
2022-08-26T02:47:02.375Z,23.88
2022-08-26T02:49:31.467Z,24.00
2022-08-26T02:52:01.841Z,24.03
2022-08-26T02:54:33.489Z,23.90
2022-08-26T02:57:02.626Z,23.77
2022-08-26T02:59:32.458Z,23.79
2022-08-26T03:02:01.403Z,23.90
2022-08-26T03:04:31.154Z,23.78
2022-08-26T03:07:03.036Z,23.74
2022-08-26T03:09:33.454Z,23.75
2022-08-26T03:12:02.157Z,23.85
2022-08-26T03:14:30.847Z,23.83
2022-08-26T03:17:00.394Z,23.68
2022-08-26T03:19:29.081Z,23.71
2022-08-26T03:22:00.409Z,23.65
2022-08-26T03:24:29.106Z,23.54
2022-08-26T03:26:59.122Z,23.62
2022-08-26T03:29:45.272Z,23.59
2022-08-26T03:32:18.979Z,23.60
2022-08-26T03:34:47.896Z,23.58
2022-08-26T03:37:16.593Z,23.55
2022-08-26T03:39:45.887Z,23.58
2022-08-26T03:42:18.506Z,23.56
2022-08-26T03:44:51.499Z,23.49
2022-08-26T03:47:20.607Z,23.50
2022-08-26T03:49:51.896Z,23.32
2022-08-26T03:52:20.835Z,23.38
2022-08-26T03:54:49.811Z,23.25
2022-08-26T03:57:19.754Z,23.28
2022-08-26T03:59:48.980Z,23.42
2022-08-26T04:02:17.641Z,23.38
2022-08-26T04:04:46.841Z,23.50
2022-08-26T04:07:16.400Z,23.37
2022-08-26T04:09:46.476Z,23.34
2022-08-26T04:12:15.200Z,23.36
2022-08-26T04:14:45.236Z,23.34
2022-08-26T04:17:15.715Z,23.40
2022-08-26T04:19:45.455Z,23.40
2022-08-26T04:22:14.345Z,23.50
2022-08-26T04:24:52.659Z,23.38
2022-08-26T04:27:21.540Z,23.43
2022-08-26T04:29:55.150Z,23.38
2022-08-26T04:32:24.615Z,23.42
2022-08-26T04:34:53.432Z,23.33
2022-08-26T04:37:22.039Z,23.32
2022-08-26T04:39:54.457Z,23.43
2022-08-26T04:42:26.234Z,23.38
2022-08-26T04:44:56.876Z,23.39
2022-08-26T04:47:30.414Z,23.43
2022-08-26T04:50:01.825Z,23.38
2022-08-26T04:52:31.015Z,23.48
2022-08-26T04:54:59.748Z,23.55
2022-08-26T04:57:28.871Z,23.63
2022-08-26T04:59:58.984Z,23.71
2022-08-26T05:02:28.498Z,23.89
2022-08-26T05:04:57.600Z,23.88
2022-08-26T05:07:26.393Z,23.93
2022-08-26T05:09:55.752Z,23.73
2022-08-26T05:12:24.568Z,23.92
2022-08-26T05:14:53.536Z,23.87
2022-08-26T05:17:23.907Z,24.11
2022-08-26T05:19:52.649Z,23.69
2022-08-26T05:22:21.328Z,24.13
2022-08-26T05:24:50.280Z,24.38
2022-08-26T05:27:22.214Z,24.45
2022-08-26T05:29:54.437Z,24.37
2022-08-26T05:32:25.173Z,24.85
2022-08-26T05:34:55.446Z,25.13
2022-08-26T05:37:24.147Z,25.10
2022-08-26T05:39:53.078Z,25.53
2022-08-26T05:42:22.034Z,26.06
2022-08-26T05:44:55.913Z,26.52
2022-08-26T05:47:26.921Z,26.97
2022-08-26T05:50:05.131Z,27.02
2022-08-26T05:52:34.199Z,26.96
2022-08-26T05:55:02.824Z,26.74
2022-08-26T05:57:31.651Z,26.64
2022-08-26T06:00:00.705Z,26.44
2022-08-26T06:02:31.153Z,26.35
2022-08-26T06:05:00.293Z,26.46
2022-08-26T06:07:42.896Z,26.34
2022-08-26T06:10:31.674Z,26.37
2022-08-26T06:13:09.337Z,26.54
2022-08-26T06:15:43.201Z,26.44
2022-08-26T06:18:15.191Z,26.46
2022-08-26T06:20:57.294Z,26.76
2022-08-26T06:23:46.049Z,26.68
2022-08-26T06:26:15.843Z,26.39
2022-08-26T06:28:45.789Z,26.54
2022-08-26T06:31:15.680Z,26.70
2022-08-26T06:33:46.383Z,26.69
2022-08-26T06:36:19.460Z,26.55
2022-08-26T06:38:48.633Z,26.89
2022-08-26T06:41:21.120Z,26.98
2022-08-26T06:43:50.363Z,26.89
2022-08-26T06:46:23.441Z,27.21
2022-08-26T06:48:58.660Z,26.73
2022-08-26T06:51:29.728Z,26.96
2022-08-26T06:54:00.577Z,26.89
2022-08-26T06:56:30.699Z,27.05
2022-08-26T06:58:59.611Z,27.13
2022-08-26T07:01:30.272Z,27.26
2022-08-26T07:04:05.001Z,27.31
2022-08-26T07:06:41.368Z,27.40
2022-08-26T07:09:12.062Z,27.63
2022-08-26T07:11:42.863Z,27.43
2022-08-26T07:14:11.667Z,27.54
2022-08-26T07:16:41.227Z,27.82
2022-08-26T07:19:12.054Z,27.87
2022-08-26T07:21:42.215Z,27.79
2022-08-26T07:24:12.138Z,27.89
2022-08-26T07:26:42.921Z,27.62
2022-08-26T07:29:12.527Z,27.89
2022-08-26T07:31:42.475Z,27.93
2022-08-26T07:34:13.902Z,27.73
2022-08-26T07:36:42.999Z,28.26
2022-08-26T07:39:11.640Z,27.99
2022-08-26T07:41:42.556Z,27.95
2022-08-26T07:44:12.453Z,27.79
2022-08-26T07:46:41.559Z,28.17
2022-08-26T07:49:14.571Z,28.15
2022-08-26T07:51:44.370Z,28.47
2022-08-26T07:54:13.537Z,28.50
2022-08-26T07:56:42.175Z,28.39
2022-08-26T07:59:15.107Z,28.53
2022-08-26T08:01:44.899Z,28.67
2022-08-26T08:04:18.886Z,28.78
2022-08-26T08:06:54.991Z,28.58
2022-08-26T08:09:24.586Z,28.96
2022-08-26T08:11:53.947Z,28.73
2022-08-26T08:14:22.711Z,29.10
2022-08-26T08:16:54.756Z,29.01
2022-08-26T08:19:29.942Z,29.14
2022-08-26T08:22:17.081Z,29.29
2022-08-26T08:24:49.711Z,29.42
2022-08-26T08:27:22.935Z,29.19
2022-08-26T08:29:54.938Z,29.20
2022-08-26T08:32:24.269Z,29.34
2022-08-26T08:34:54.413Z,29.26
2022-08-26T08:37:23.203Z,29.27
2022-08-26T08:39:52.678Z,29.62
2022-08-26T08:42:38.946Z,29.89
2022-08-26T08:45:12.185Z,29.88
2022-08-26T08:47:43.178Z,29.91
2022-08-26T08:50:24.010Z,29.88
2022-08-26T08:53:02.014Z,29.95
2022-08-26T08:55:39.853Z,29.99
2022-08-26T08:58:14.922Z,30.03
2022-08-26T09:01:01.613Z,29.93
2022-08-26T09:03:41.493Z,30.14
2022-08-26T09:06:17.302Z,30.24
2022-08-26T09:08:47.513Z,30.04
2022-08-26T09:11:21.412Z,30.17
2022-08-26T09:13:53.626Z,30.20
2022-08-26T09:16:34.267Z,30.61
2022-08-26T09:19:19.347Z,30.69
2022-08-26T09:21:57.865Z,30.63
2022-08-26T09:24:29.008Z,30.76
2022-08-26T09:26:59.203Z,30.71
2022-08-26T09:29:30.193Z,30.74
2022-08-26T09:32:19.346Z,30.70
2022-08-26T09:34:57.516Z,30.86
2022-08-26T09:40:22.572Z,31.02
2022-08-26T09:43:08.729Z,31.29
2022-08-26T09:45:41.160Z,31.21
2022-08-26T09:48:31.187Z,31.23
2022-08-26T09:51:01.438Z,31.28
2022-08-26T09:53:33.210Z,30.98
2022-08-26T09:56:17.775Z,31.45
2022-08-26T09:58:48.726Z,31.44
2022-08-26T10:01:27.737Z,31.60
2022-08-26T10:04:08.333Z,31.39
2022-08-26T10:06:41.139Z,31.67
2022-08-26T10:09:14.195Z,31.78
2022-08-26T10:11:47.904Z,31.81
2022-08-26T10:14:20.642Z,31.70
2022-08-26T10:16:52.009Z,32.10
2022-08-26T10:19:41.763Z,31.92
2022-08-26T10:22:20.053Z,32.19
2022-08-26T10:24:55.113Z,31.78
2022-08-26T10:27:31.598Z,32.26
2022-08-26T10:30:07.031Z,32.48
2022-08-26T10:32:41.395Z,32.54
2022-08-26T10:35:12.934Z,32.45
2022-08-26T10:37:44.135Z,32.51
2022-08-26T10:40:16.751Z,32.59
2022-08-26T10:42:49.378Z,32.74
2022-08-26T10:45:22.110Z,32.78
2022-08-26T10:47:53.606Z,32.89
2022-08-26T10:50:23.867Z,33.06
2022-08-26T10:52:56.936Z,32.99
2022-08-26T10:55:35.526Z,33.24
2022-08-26T10:58:26.067Z,33.12
2022-08-26T11:01:22.794Z,33.19
2022-08-26T11:03:58.751Z,33.23
2022-08-26T11:06:29.748Z,33.33
2022-08-26T11:08:59.680Z,33.21
2022-08-26T11:11:53.325Z,33.35
2022-08-26T11:14:53.068Z,33.27
2022-08-26T11:17:57.802Z,33.65
2022-08-26T11:20:36.333Z,33.90
2022-08-26T11:23:41.689Z,33.84
2022-08-26T11:26:35.744Z,33.47
2022-08-26T11:29:14.516Z,33.73
2022-08-26T11:31:57.046Z,33.39
2022-08-26T11:34:57.896Z,33.84
2022-08-26T11:37:32.400Z,33.85
2022-08-26T11:40:03.962Z,33.77
2022-08-26T11:42:37.007Z,34.23
2022-08-26T11:45:23.916Z,34.05
2022-08-26T11:47:52.611Z,33.73
2022-08-26T11:50:26.067Z,34.18
2022-08-26T11:52:56.882Z,34.34
2022-08-26T11:55:26.219Z,34.38
2022-08-26T11:57:56.817Z,34.78
2022-08-26T12:00:33.838Z,35.09
2022-08-26T12:03:07.416Z,35.08
2022-08-26T12:05:39.989Z,35.23
2022-08-26T12:08:10.940Z,35.04
2022-08-26T12:10:40.199Z,35.34
2022-08-26T12:13:09.871Z,35.60
2022-08-26T12:15:40.623Z,35.54
2022-08-26T12:18:18.263Z,35.47
2022-08-26T12:21:05.780Z,35.25
2022-08-26T12:23:44.508Z,35.30
2022-08-26T12:26:21.488Z,35.79
2022-08-26T12:28:55.789Z,36.14
2022-08-26T12:31:33.979Z,35.68
2022-08-26T12:34:05.232Z,36.26
2022-08-26T12:36:37.196Z,36.48
2022-08-26T12:39:10.569Z,36.22
2022-08-26T12:41:48.173Z,36.61
2022-08-26T12:44:37.417Z,36.71
2022-08-26T12:47:11.401Z,36.91
2022-08-26T12:49:41.363Z,36.48
2022-08-26T12:52:29.974Z,37.04
2022-08-26T12:55:00.774Z,36.83
2022-08-26T12:57:31.950Z,36.93
2022-08-26T13:00:26.295Z,36.80
2022-08-26T13:02:58.668Z,36.36
2022-08-26T13:05:29.147Z,36.55
2022-08-26T13:08:11.769Z,37.09
2022-08-26T13:10:43.238Z,37.50
2022-08-26T13:13:11.925Z,37.59
2022-08-26T13:15:41.040Z,37.12
2022-08-26T13:18:11.511Z,37.06
2022-08-26T13:20:44.086Z,37.19
2022-08-26T13:23:13.331Z,37.23
2022-08-26T13:25:42.517Z,37.75
2022-08-26T13:28:11.182Z,37.89
2022-08-26T13:30:40.663Z,37.79
2022-08-26T13:33:12.248Z,37.62
2022-08-26T13:35:43.610Z,37.99
2022-08-26T13:38:18.577Z,38.03
2022-08-26T13:41:03.597Z,38.45
2022-08-26T13:43:32.774Z,38.25
2022-08-26T13:46:02.622Z,38.07
2022-08-26T13:48:34.523Z,38.47
2022-08-26T13:51:03.436Z,38.55
2022-08-26T13:53:37.895Z,38.78
2022-08-26T13:56:11.133Z,39.02
2022-08-26T13:58:39.953Z,39.09
2022-08-26T14:01:11.105Z,39.21
2022-08-26T14:03:41.446Z,38.95
2022-08-26T14:06:10.773Z,38.82
2022-08-26T14:08:39.595Z,38.80
2022-08-26T14:11:08.689Z,38.46
2022-08-26T14:13:37.515Z,38.64
2022-08-26T14:16:10.065Z,38.87
2022-08-26T14:18:44.321Z,39.29
2022-08-26T14:21:15.374Z,39.21
2022-08-26T14:23:44.832Z,39.52
2022-08-26T14:26:27.772Z,39.85
2022-08-26T14:28:58.944Z,40.03
2022-08-26T14:31:29.318Z,39.97
2022-08-26T14:34:03.150Z,39.88
2022-08-26T14:36:32.998Z,40.04
2022-08-26T14:39:05.886Z,39.98
2022-08-26T14:41:36.306Z,40.27
2022-08-26T14:44:06.816Z,40.50
2022-08-26T14:46:40.094Z,40.65
2022-08-26T14:49:10.894Z,40.63
2022-08-26T14:51:40.928Z,40.44
2022-08-26T14:54:12.829Z,40.47
2022-08-26T14:56:45.433Z,40.50
2022-08-26T14:59:15.402Z,40.64
2022-08-26T15:01:44.177Z,40.32
2022-08-26T15:04:17.151Z,39.69
2022-08-26T15:06:46.249Z,39.68
2022-08-26T15:09:15.718Z,39.89
2022-08-26T15:11:44.602Z,39.73
2022-08-26T15:14:19.697Z,38.77
2022-08-26T15:16:49.551Z,39.04
2022-08-26T15:19:20.421Z,38.94
2022-08-26T15:21:49.203Z,38.68
2022-08-26T15:24:20.027Z,38.41
2022-08-26T15:26:49.763Z,38.54
2022-08-26T15:29:18.612Z,38.16
2022-08-26T15:31:47.621Z,37.97
2022-08-26T15:34:17.432Z,37.78
2022-08-26T15:36:47.763Z,37.72
2022-08-26T15:39:17.689Z,37.62
2022-08-26T15:41:46.651Z,37.29
2022-08-26T15:44:17.761Z,36.65
2022-08-26T15:46:46.830Z,36.45
2022-08-26T15:49:17.793Z,36.54
2022-08-26T15:51:54.518Z,36.24
2022-08-26T15:54:24.342Z,36.45
2022-08-26T15:56:53.824Z,36.13
2022-08-26T15:59:23.092Z,36.17
2022-08-26T16:01:52.618Z,36.13
2022-08-26T16:04:21.944Z,36.07
2022-08-26T16:06:52.337Z,35.90
2022-08-26T16:09:23.950Z,35.71
2022-08-26T16:11:53.030Z,35.67
2022-08-26T16:14:22.108Z,35.57
2022-08-26T16:16:50.862Z,35.41
2022-08-26T16:19:19.853Z,35.23
2022-08-26T16:21:50.802Z,35.16
2022-08-26T16:24:24.780Z,34.93
2022-08-26T16:26:56.310Z,34.60
2022-08-26T16:29:25.534Z,34.52
2022-08-26T16:31:54.793Z,34.42
2022-08-26T16:34:23.786Z,34.27
2022-08-26T16:36:53.088Z,34.08
2022-08-26T16:39:23.100Z,33.96
2022-08-26T16:41:58.179Z,33.58
2022-08-26T16:44:28.059Z,33.58
2022-08-26T16:47:01.877Z,33.51
2022-08-26T16:49:30.557Z,33.18
2022-08-26T16:51:59.234Z,33.11
2022-08-26T16:54:29.484Z,32.94
2022-08-26T16:56:58.189Z,32.74
2022-08-26T16:59:27.095Z,32.77
2022-08-26T17:01:56.091Z,32.60
2022-08-26T17:04:24.941Z,32.47
2022-08-26T17:06:53.684Z,32.54
2022-08-26T17:09:22.716Z,32.47
2022-08-26T17:11:52.981Z,32.31
2022-08-26T17:14:21.979Z,32.09
2022-08-26T17:16:53.388Z,32.13
2022-08-26T17:19:22.624Z,31.79
2022-08-26T17:21:51.313Z,31.80
2022-08-26T17:24:20.245Z,31.78
2022-08-26T17:26:50.726Z,31.55
2022-08-26T17:29:24.318Z,31.35
2022-08-26T17:31:53.474Z,31.30
2022-08-26T17:34:23.052Z,31.12
2022-08-26T17:36:51.761Z,31.03
2022-08-26T17:39:20.677Z,30.92
2022-08-26T17:41:49.335Z,30.90
2022-08-26T17:44:17.959Z,30.70
2022-08-26T17:46:48.256Z,30.59
2022-08-26T17:49:16.932Z,30.43
2022-08-26T17:51:46.443Z,30.34
2022-08-26T17:54:15.446Z,30.19
2022-08-26T17:56:44.147Z,30.11
2022-08-26T17:59:12.772Z,29.95
2022-08-26T18:01:41.705Z,29.97
2022-08-26T18:04:12.152Z,29.72
2022-08-26T18:06:41.403Z,29.61
2022-08-26T18:09:10.432Z,29.56
2022-08-26T18:11:39.042Z,29.50
2022-08-26T18:14:09.573Z,29.47
2022-08-26T18:16:41.614Z,29.33
2022-08-26T18:19:15.251Z,29.45
2022-08-26T18:21:44.340Z,29.22
2022-08-26T18:24:14.261Z,29.07
2022-08-26T18:26:48.307Z,29.04
2022-08-26T18:29:18.487Z,28.93
2022-08-26T18:31:47.122Z,28.92
2022-08-26T18:34:17.126Z,28.87
2022-08-26T18:36:46.258Z,28.76
2022-08-26T18:39:15.800Z,28.68
2022-08-26T18:41:46.738Z,28.75
2022-08-26T18:44:17.479Z,28.83
2022-08-26T18:46:46.962Z,28.63
2022-08-26T18:49:18.456Z,28.72
2022-08-26T18:51:47.801Z,28.65
2022-08-26T18:54:16.792Z,28.64
2022-08-26T18:56:45.806Z,28.52
2022-08-26T18:59:15.310Z,28.41
2022-08-26T19:01:45.401Z,28.50
2022-08-26T19:04:15.707Z,28.36
2022-08-26T19:06:49.844Z,28.24
2022-08-26T19:09:19.516Z,28.13
2022-08-26T19:11:50.316Z,28.13
2022-08-26T19:14:20.235Z,28.13
2022-08-26T19:16:50.259Z,28.12
2022-08-26T19:19:20.366Z,28.03
2022-08-26T19:21:51.959Z,28.05
2022-08-26T19:24:21.775Z,27.94
2022-08-26T19:26:57.703Z,27.98
2022-08-26T19:29:29.524Z,27.85
2022-08-26T19:31:59.025Z,27.75
2022-08-26T19:34:28.264Z,27.67
2022-08-26T19:36:58.594Z,27.72
2022-08-26T19:39:28.125Z,27.81
2022-08-26T19:41:57.613Z,27.60
2022-08-26T19:44:44.335Z,27.58
2022-08-26T19:47:16.788Z,27.45
2022-08-26T19:49:46.068Z,27.47
2022-08-26T19:52:16.692Z,27.50
2022-08-26T19:54:46.109Z,27.32
2022-08-26T19:57:15.500Z,27.35
2022-08-26T19:59:44.684Z,27.42
2022-08-26T20:02:14.823Z,27.25
2022-08-26T20:04:48.403Z,27.23
2022-08-26T20:07:19.059Z,27.00
2022-08-26T20:09:49.349Z,27.17
2022-08-26T20:12:18.995Z,27.06
2022-08-26T20:14:48.362Z,27.00
2022-08-26T20:17:17.545Z,27.13
2022-08-26T20:20:04.407Z,27.13
2022-08-26T20:22:35.137Z,26.96
2022-08-26T20:25:04.158Z,27.02
2022-08-26T20:27:37.702Z,26.92
2022-08-26T20:30:09.342Z,26.94
2022-08-26T20:32:39.631Z,26.98
2022-08-26T20:35:10.597Z,26.81
2022-08-26T20:37:41.708Z,26.84
2022-08-26T20:40:11.103Z,26.82
2022-08-26T20:42:40.006Z,26.84
2022-08-26T20:45:09.461Z,26.85
2022-08-26T20:47:39.366Z,26.62
2022-08-26T20:50:09.174Z,26.65
2022-08-26T20:52:38.106Z,26.53
2022-08-26T20:55:09.443Z,26.75
2022-08-26T20:57:38.416Z,26.68
2022-08-26T21:00:12.611Z,26.69
2022-08-26T21:02:45.460Z,26.74
2022-08-26T21:05:14.200Z,26.68
2022-08-26T21:07:43.494Z,26.56
2022-08-26T21:10:13.665Z,26.57
2022-08-26T21:12:42.278Z,26.69
2022-08-26T21:15:12.053Z,26.62
2022-08-26T21:17:40.708Z,26.62
2022-08-26T21:20:10.080Z,26.62
2022-08-26T21:22:38.983Z,26.59
2022-08-26T21:25:08.964Z,26.52
2022-08-26T21:27:39.612Z,26.39
2022-08-26T21:30:09.034Z,26.44
2022-08-26T21:32:37.864Z,26.48
2022-08-26T21:35:07.323Z,26.39
2022-08-26T21:37:54.760Z,26.45
2022-08-26T21:40:23.551Z,26.35
2022-08-26T21:42:53.928Z,26.32
2022-08-26T21:45:22.591Z,26.38
2022-08-26T21:47:51.427Z,26.27
2022-08-26T21:50:20.642Z,26.29
2022-08-26T21:52:52.091Z,26.15
2022-08-26T21:55:21.165Z,26.20
2022-08-26T21:57:49.881Z,26.45
2022-08-26T22:00:20.880Z,26.42
2022-08-26T22:02:50.329Z,26.35
2022-08-26T22:05:19.126Z,26.29
2022-08-26T22:07:47.885Z,26.15
2022-08-26T22:10:16.879Z,26.34
2022-08-26T22:12:45.581Z,26.46
2022-08-26T22:15:14.645Z,26.34
2022-08-26T22:17:45.530Z,26.14
2022-08-26T22:20:16.722Z,26.11
2022-08-26T22:22:46.112Z,26.13
2022-08-26T22:25:14.951Z,26.00
2022-08-26T22:27:43.592Z,26.01
2022-08-26T22:30:13.239Z,26.08
2022-08-26T22:32:42.269Z,26.01
2022-08-26T22:35:28.728Z,26.13
2022-08-26T22:37:58.859Z,26.03
2022-08-26T22:40:28.407Z,25.98
2022-08-26T22:42:58.699Z,25.83
2022-08-26T22:45:35.436Z,25.91
2022-08-26T22:48:05.136Z,25.81
2022-08-26T22:50:35.605Z,25.73
2022-08-26T22:53:04.618Z,25.75
2022-08-26T22:55:33.309Z,25.69
2022-08-26T22:58:02.498Z,25.66
2022-08-26T23:00:36.985Z,25.61
2022-08-26T23:03:06.148Z,25.60
2022-08-26T23:05:36.531Z,25.51
2022-08-26T23:08:05.439Z,25.47
2022-08-26T23:10:34.413Z,25.42
2022-08-26T23:13:03.733Z,25.41
2022-08-26T23:15:32.693Z,25.33
2022-08-26T23:18:01.887Z,25.35
2022-08-26T23:20:31.529Z,25.40
2022-08-26T23:23:01.942Z,25.35
2022-08-26T23:25:32.428Z,25.33
2022-08-26T23:28:01.854Z,25.19
2022-08-26T23:30:32.069Z,25.16
2022-08-26T23:33:01.074Z,25.22
2022-08-26T23:35:28.796Z,25.26
2022-08-26T23:37:57.877Z,25.23
2022-08-26T23:40:32.258Z,25.14
2022-08-26T23:43:03.354Z,25.22
2022-08-26T23:45:33.118Z,25.11
2022-08-26T23:48:03.125Z,25.13
2022-08-26T23:50:46.562Z,25.05
2022-08-26T23:53:19.491Z,25.04
2022-08-26T23:55:51.996Z,24.88
2022-08-26T23:58:21.885Z,24.97
